createdAt,value
2019-06-20T00:01:48.795Z,3.30
2019-06-20T00:04:17.365Z,3.60
2019-06-20T00:06:45.845Z,3.37
2019-06-20T00:09:14.847Z,3.60
2019-06-20T00:11:43.802Z,2.93
2019-06-20T00:14:12.608Z,2.80
2019-06-20T00:16:41.144Z,2.87
2019-06-20T00:19:09.968Z,3.57
2019-06-20T00:21:38.558Z,3.97
2019-06-20T00:24:07.040Z,3.50
2019-06-20T00:26:35.625Z,3.70
2019-06-20T00:29:04.342Z,3.77
2019-06-20T00:31:33.177Z,4.13
2019-06-20T00:34:01.730Z,4.23
2019-06-20T00:36:30.312Z,4.70
2019-06-20T00:38:58.875Z,4.87
2019-06-20T00:41:27.466Z,4.47
2019-06-20T00:43:56.004Z,4.57
2019-06-20T00:46:24.535Z,5.80
2019-06-20T00:48:53.350Z,5.03
2019-06-20T00:51:21.988Z,4.83
2019-06-20T00:53:50.871Z,4.80
2019-06-20T00:56:19.783Z,4.13
2019-06-20T00:58:48.281Z,4.50
2019-06-20T01:01:16.813Z,5.07
2019-06-20T01:03:45.421Z,5.20
2019-06-20T01:06:13.832Z,4.97
2019-06-20T01:08:42.472Z,4.63
2019-06-20T01:11:11.378Z,4.67
2019-06-20T01:13:39.956Z,4.43
2019-06-20T01:16:08.505Z,3.97
2019-06-20T01:18:37.086Z,4.23
2019-06-20T01:21:06.007Z,3.90
2019-06-20T01:23:34.511Z,5.37
2019-06-20T01:26:03.099Z,4.13
2019-06-20T01:28:31.538Z,4.23
2019-06-20T01:31:00.312Z,4.73
2019-06-20T01:33:28.841Z,4.17
2019-06-20T01:35:57.321Z,4.47
2019-06-20T01:38:25.888Z,4.40
2019-06-20T01:40:54.433Z,4.70
2019-06-20T01:43:23.271Z,4.47
2019-06-20T01:45:52.032Z,5.03
2019-06-20T01:48:20.550Z,4.43
2019-06-20T01:50:49.069Z,3.80
2019-06-20T01:53:17.634Z,5.33
2019-06-20T01:55:46.168Z,3.23
2019-06-20T01:58:14.906Z,4.37
2019-06-20T02:00:45.855Z,5.10
2019-06-20T02:03:14.762Z,4.63
2019-06-20T02:05:43.648Z,4.07
2019-06-20T02:08:12.191Z,4.80
2019-06-20T02:10:41.050Z,4.97
2019-06-20T02:13:09.552Z,3.90
2019-06-20T02:15:38.117Z,4.43
2019-06-20T02:18:06.618Z,4.30
2019-06-20T02:20:36.382Z,4.43
2019-06-20T02:23:05.184Z,5.13
2019-06-20T02:25:33.685Z,4.60
2019-06-20T02:28:02.291Z,4.80
2019-06-20T02:30:30.847Z,4.43
2019-06-20T02:32:59.416Z,4.20
2019-06-20T02:35:27.994Z,4.87
2019-06-20T02:37:56.546Z,4.00
2019-06-20T02:40:25.098Z,4.53
2019-06-20T02:42:53.596Z,5.43
2019-06-20T02:45:22.126Z,4.90
2019-06-20T02:47:50.670Z,4.97
2019-06-20T02:50:19.273Z,4.60
2019-06-20T02:52:48.133Z,4.40
2019-06-20T02:55:16.689Z,4.60
2019-06-20T02:57:45.169Z,4.57
2019-06-20T03:00:13.847Z,4.30
2019-06-20T03:02:42.350Z,3.90
2019-06-20T03:05:11.247Z,4.20
2019-06-20T03:07:39.771Z,3.93
2019-06-20T03:10:08.307Z,4.10
2019-06-20T03:12:37.148Z,3.67
2019-06-20T03:15:05.779Z,4.77
2019-06-20T03:17:34.340Z,4.20
2019-06-20T03:20:02.949Z,4.10
2019-06-20T03:22:31.628Z,4.77
2019-06-20T03:25:00.158Z,4.60
2019-06-20T03:27:28.673Z,4.70
2019-06-20T03:29:57.258Z,3.57
2019-06-20T03:32:25.841Z,4.33
2019-06-20T03:34:54.730Z,3.40
2019-06-20T03:37:23.308Z,3.13
2019-06-20T03:39:51.833Z,3.33
2019-06-20T03:42:20.377Z,2.80
2019-06-20T03:45:01.554Z,3.10
2019-06-20T03:47:19.557Z,2.73
2019-06-20T03:49:48.068Z,3.20
2019-06-20T03:52:16.658Z,3.43
2019-06-20T03:54:45.151Z,4.37
2019-06-20T03:57:14.013Z,3.00
2019-06-20T03:59:42.587Z,3.80
2019-06-20T04:02:11.347Z,3.40
2019-06-20T04:04:39.914Z,3.13
2019-06-20T04:07:08.409Z,4.47
2019-06-20T04:09:37.214Z,4.47
2019-06-20T04:12:05.773Z,4.90
2019-06-20T04:14:34.735Z,4.73
2019-06-20T04:17:03.239Z,5.00
2019-06-20T04:19:31.735Z,5.87
2019-06-20T04:22:00.625Z,5.27
2019-06-20T04:24:29.157Z,4.87
2019-06-20T04:26:57.732Z,5.20
2019-06-20T04:29:26.311Z,5.17
2019-06-20T04:31:55.193Z,6.00
2019-06-20T04:34:23.736Z,4.90
2019-06-20T04:36:52.320Z,5.67
2019-06-20T04:39:20.933Z,6.33
2019-06-20T04:41:49.723Z,6.23
2019-06-20T04:44:18.586Z,7.30
2019-06-20T04:46:53.131Z,6.30
2019-06-20T04:49:21.712Z,6.13
2019-06-20T04:51:50.503Z,5.83
2019-06-20T04:54:19.055Z,6.03
2019-06-20T04:56:47.909Z,6.10
2019-06-20T04:59:16.425Z,5.63
2019-06-20T05:01:44.939Z,7.27
2019-06-20T05:04:13.422Z,6.37
2019-06-20T05:06:42.325Z,7.17
2019-06-20T05:09:10.895Z,6.77
2019-06-20T05:11:39.414Z,7.67
2019-06-20T05:14:07.918Z,7.57
2019-06-20T05:16:36.513Z,7.00
2019-06-20T05:19:05.073Z,7.73
2019-06-20T05:21:33.654Z,8.33
2019-06-20T05:24:02.398Z,7.87
2019-06-20T05:26:31.344Z,7.87
2019-06-20T05:28:59.920Z,8.17
2019-06-20T05:31:28.491Z,7.70
2019-06-20T05:33:57.004Z,9.90
2019-06-20T05:36:25.748Z,8.47
2019-06-20T05:38:54.510Z,8.27
2019-06-20T05:41:23.299Z,8.87
2019-06-20T05:43:51.847Z,8.03
2019-06-20T05:46:20.447Z,8.73
2019-06-20T05:48:49.287Z,9.60
2019-06-20T05:51:17.899Z,8.73
2019-06-20T05:53:46.916Z,11.03
2019-06-20T05:56:15.465Z,12.57
2019-06-20T05:58:44.079Z,13.07
2019-06-20T06:01:12.603Z,12.07
2019-06-20T06:03:41.201Z,12.43
2019-06-20T06:06:09.788Z,13.13
2019-06-20T06:08:38.408Z,14.87
2019-06-20T06:11:06.937Z,11.37
2019-06-20T06:13:35.500Z,11.87
2019-06-20T06:16:04.183Z,14.37
2019-06-20T06:18:32.740Z,16.30
2019-06-20T06:21:01.309Z,15.13
2019-06-20T06:23:29.793Z,16.77
2019-06-20T06:25:58.670Z,17.97
2019-06-20T06:28:27.585Z,17.57
2019-06-20T06:30:56.132Z,20.10
2019-06-20T06:33:24.804Z,19.97
2019-06-20T06:35:53.752Z,21.60
2019-06-20T06:38:22.518Z,21.80
2019-06-20T06:40:51.096Z,25.33
2019-06-20T06:43:19.596Z,21.77
2019-06-20T06:45:48.226Z,19.73
2019-06-20T06:48:17.060Z,19.97
2019-06-20T06:50:45.572Z,20.80
2019-06-20T06:53:14.100Z,22.13
2019-06-20T06:55:43.310Z,19.63
2019-06-20T06:58:11.873Z,21.43
2019-06-20T07:00:40.930Z,24.33
2019-06-20T07:03:10.069Z,20.67
2019-06-20T07:05:38.643Z,24.60
2019-06-20T07:08:07.177Z,20.83
2019-06-20T07:10:35.748Z,21.17
2019-06-20T07:13:04.298Z,22.97
2019-06-20T07:15:32.827Z,23.60
2019-06-20T07:18:01.326Z,21.53
2019-06-20T07:20:29.929Z,25.40
2019-06-20T07:22:58.511Z,25.90
2019-06-20T07:25:27.435Z,25.40
2019-06-20T07:27:56.249Z,23.30
2019-06-20T07:30:25.159Z,27.20
2019-06-20T07:32:53.683Z,25.43
2019-06-20T07:35:22.224Z,25.33
2019-06-20T07:37:51.102Z,25.13
2019-06-20T07:40:20.050Z,23.93
2019-06-20T07:42:48.665Z,22.97
2019-06-20T07:45:17.162Z,23.57
2019-06-20T07:47:45.660Z,23.90
2019-06-20T07:50:14.243Z,23.37
2019-06-20T07:52:51.836Z,22.07
2019-06-20T07:55:13.492Z,22.07
2019-06-20T07:57:42.092Z,20.63
2019-06-20T08:00:10.611Z,23.20
2019-06-20T08:02:39.538Z,25.27
2019-06-20T08:05:08.039Z,23.70
2019-06-20T08:07:36.561Z,24.33
2019-06-20T08:10:06.517Z,23.23
2019-06-20T08:12:35.126Z,21.33
2019-06-20T08:15:14.588Z,22.77
2019-06-20T08:17:35.750Z,23.23
2019-06-20T08:20:05.651Z,21.57
2019-06-20T08:22:34.179Z,22.50
2019-06-20T08:25:03.325Z,23.73
2019-06-20T08:27:58.800Z,20.87
2019-06-20T08:30:28.701Z,20.37
2019-06-20T08:32:58.147Z,17.80
2019-06-20T08:35:28.329Z,15.90
2019-06-20T08:37:57.806Z,15.10
2019-06-20T08:40:27.677Z,14.73
2019-06-20T08:42:57.163Z,15.47
2019-06-20T08:45:27.073Z,15.23
2019-06-20T08:47:57.021Z,12.77
2019-06-20T08:50:25.984Z,14.63
2019-06-20T08:52:56.067Z,16.03
2019-06-20T08:55:24.907Z,17.57
2019-06-20T08:57:55.636Z,16.03
2019-06-20T09:00:23.846Z,15.50
2019-06-20T09:02:54.081Z,15.43
2019-06-20T09:05:23.038Z,15.17
2019-06-20T09:07:53.590Z,15.23
2019-06-20T09:10:26.601Z,15.83
2019-06-20T09:12:55.187Z,19.00
2019-06-20T09:15:23.723Z,17.60
2019-06-20T09:17:53.768Z,15.43
2019-06-20T09:20:22.656Z,17.27
2019-06-20T09:22:52.315Z,15.13
2019-06-20T09:25:21.914Z,14.40
2019-06-20T09:27:52.668Z,19.37
2019-06-20T09:30:20.964Z,17.20
2019-06-20T09:32:49.460Z,15.23
2019-06-20T09:35:18.330Z,15.37
2019-06-20T09:37:47.161Z,19.07
2019-06-20T09:40:15.743Z,16.17
2019-06-20T09:42:44.306Z,15.47
2019-06-20T09:45:12.840Z,14.77
2019-06-20T09:47:41.648Z,17.63
2019-06-20T09:50:10.258Z,17.53
2019-06-20T09:52:38.819Z,15.60
2019-06-20T09:55:07.365Z,14.20
2019-06-20T09:57:35.824Z,15.07
2019-06-20T10:00:09.992Z,16.90
2019-06-20T10:02:34.912Z,18.13
2019-06-20T10:05:03.656Z,16.23
2019-06-20T10:07:32.223Z,16.83
2019-06-20T10:10:01.153Z,19.77
2019-06-20T10:12:29.683Z,18.57
2019-06-20T10:14:58.239Z,16.93
2019-06-20T10:17:26.861Z,20.27
2019-06-20T10:19:56.336Z,19.30
2019-06-20T10:22:25.336Z,17.17
2019-06-20T10:24:53.853Z,18.33
2019-06-20T10:27:22.329Z,18.13
2019-06-20T10:29:51.304Z,17.57
2019-06-20T10:32:19.888Z,18.57
2019-06-20T10:34:48.501Z,16.43
2019-06-20T10:37:17.178Z,17.63
2019-06-20T10:39:46.137Z,17.07
2019-06-20T10:42:15.149Z,16.03
2019-06-20T10:44:44.297Z,17.37
2019-06-20T10:47:13.260Z,15.60
2019-06-20T10:49:43.038Z,15.30
2019-06-20T10:52:12.614Z,13.40
2019-06-20T10:54:42.227Z,11.53
2019-06-20T10:57:11.639Z,8.37
2019-06-20T10:59:41.156Z,8.57
2019-06-20T11:02:10.522Z,7.63
2019-06-20T11:04:40.471Z,5.97
2019-06-20T11:07:09.394Z,5.93
2019-06-20T11:09:39.578Z,6.47
2019-06-20T11:12:08.707Z,4.50
2019-06-20T11:14:38.695Z,5.10
2019-06-20T11:17:07.653Z,4.77
2019-06-20T11:19:38.140Z,4.47
2019-06-20T11:22:06.411Z,5.60
2019-06-20T11:24:37.422Z,4.70
2019-06-20T11:27:05.519Z,6.20
2019-06-20T11:29:34.087Z,6.37
2019-06-20T11:32:02.666Z,6.50
2019-06-20T11:34:31.274Z,6.90
2019-06-20T11:36:59.781Z,6.03
2019-06-20T11:39:28.294Z,6.17
2019-06-20T11:41:56.854Z,5.77
2019-06-20T11:44:25.430Z,5.60
2019-06-20T11:46:54.690Z,5.57
2019-06-20T11:49:23.221Z,4.70
2019-06-20T11:51:51.742Z,6.37
2019-06-20T11:54:20.348Z,5.77
2019-06-20T11:56:48.920Z,7.10
2019-06-20T11:59:17.510Z,6.97
2019-06-20T12:01:47.214Z,6.70
2019-06-20T12:04:16.200Z,6.40
2019-06-20T12:06:45.008Z,7.33
2019-06-20T12:09:13.540Z,8.70
2019-06-20T12:11:42.431Z,7.50
2019-06-20T12:14:11.107Z,7.60
2019-06-20T12:16:40.846Z,6.93
2019-06-20T12:19:09.982Z,6.73
2019-06-20T12:21:39.761Z,7.20
2019-06-20T12:24:08.868Z,8.53
2019-06-20T12:26:39.050Z,7.73
2019-06-20T12:29:08.123Z,7.70
2019-06-20T12:31:36.653Z,8.43
2019-06-20T12:34:05.288Z,6.80
2019-06-20T12:36:33.827Z,8.40
2019-06-20T12:39:02.372Z,7.90
2019-06-20T12:41:31.216Z,7.57
2019-06-20T12:44:00.091Z,9.30
2019-06-20T12:46:28.645Z,8.30
2019-06-20T12:48:57.214Z,8.50
2019-06-20T12:51:25.825Z,7.03
2019-06-20T12:53:54.435Z,8.83
2019-06-20T12:56:23.019Z,8.90
2019-06-20T12:58:51.559Z,7.40
2019-06-20T13:01:34.769Z,9.40
2019-06-20T13:03:50.639Z,7.87
2019-06-20T13:06:19.494Z,8.00
2019-06-20T13:08:49.417Z,9.10
2019-06-20T13:11:18.093Z,7.43
2019-06-20T13:13:46.669Z,7.07
2019-06-20T13:16:15.166Z,8.23
2019-06-20T13:18:44.643Z,6.90
2019-06-20T13:21:13.198Z,7.07
2019-06-20T13:23:43.147Z,8.40
2019-06-20T13:26:12.135Z,7.60
2019-06-20T13:28:59.190Z,8.80
2019-06-20T13:31:11.018Z,9.20
2019-06-20T13:33:40.869Z,7.10
2019-06-20T13:36:09.832Z,7.80
2019-06-20T13:38:39.902Z,6.80
2019-06-20T13:41:08.656Z,6.73
2019-06-20T13:43:37.426Z,7.60
2019-06-20T13:46:06.248Z,8.67
2019-06-20T13:48:34.790Z,7.57
2019-06-20T13:51:03.322Z,7.73
2019-06-20T13:53:31.851Z,9.80
2019-06-20T13:56:00.396Z,9.33
2019-06-20T13:58:29.264Z,11.17
2019-06-20T14:00:57.833Z,11.57
2019-06-20T14:03:26.657Z,10.37
2019-06-20T14:05:55.158Z,8.27
2019-06-20T14:08:23.775Z,8.40
2019-06-20T14:10:52.468Z,8.47
2019-06-20T14:13:21.700Z,10.60
2019-06-20T14:15:51.246Z,10.77
2019-06-20T14:18:20.045Z,9.10
2019-06-20T14:20:48.641Z,7.83
2019-06-20T14:23:17.364Z,8.07
2019-06-20T14:25:46.340Z,8.70
2019-06-20T14:28:14.978Z,7.57
2019-06-20T14:30:45.033Z,7.67
2019-06-20T14:33:14.154Z,8.83
2019-06-20T14:35:43.994Z,8.50
2019-06-20T14:38:13.209Z,8.53
2019-06-20T14:40:43.539Z,7.13
2019-06-20T14:43:12.308Z,6.60
2019-06-20T14:45:42.092Z,7.03
2019-06-20T14:48:11.286Z,7.30
2019-06-20T14:50:39.851Z,7.03
2019-06-20T14:53:08.414Z,7.63
2019-06-20T14:55:36.932Z,6.73
2019-06-20T14:58:05.510Z,7.67
2019-06-20T15:00:34.077Z,8.20
2019-06-20T15:03:02.642Z,7.87
2019-06-20T15:05:34.712Z,7.10
2019-06-20T15:08:01.995Z,6.03
2019-06-20T15:10:30.534Z,6.33
2019-06-20T15:12:59.122Z,6.40
2019-06-20T15:15:27.888Z,8.43
2019-06-20T15:17:58.246Z,8.10
2019-06-20T15:20:27.138Z,8.27
2019-06-20T15:22:56.630Z,7.63
2019-06-20T15:25:25.918Z,9.23
2019-06-20T15:27:55.404Z,8.23
2019-06-20T15:30:25.420Z,7.60
2019-06-20T15:33:05.900Z,6.77
2019-06-20T15:35:24.168Z,7.30
2019-06-20T15:37:53.772Z,9.10
2019-06-20T15:40:23.213Z,5.90
2019-06-20T15:42:53.493Z,7.07
2019-06-20T15:45:22.312Z,7.93
2019-06-20T15:47:50.930Z,7.60
2019-06-20T15:50:19.833Z,8.73
2019-06-20T15:52:48.788Z,7.50
2019-06-20T15:55:19.350Z,7.53
2019-06-20T15:57:47.987Z,8.10
2019-06-20T16:00:16.527Z,7.13
2019-06-20T16:02:45.495Z,8.30
2019-06-20T16:05:14.012Z,7.67
2019-06-20T16:07:42.845Z,7.87
2019-06-20T16:10:11.747Z,7.80
2019-06-20T16:12:40.339Z,7.20
2019-06-20T16:15:08.970Z,9.13
2019-06-20T16:17:37.517Z,9.30
2019-06-20T16:20:06.226Z,7.07
2019-06-20T16:22:34.842Z,8.00
2019-06-20T16:25:03.462Z,8.50
2019-06-20T16:27:31.941Z,7.50
2019-06-20T16:30:00.594Z,7.37
2019-06-20T16:32:29.447Z,4.93
2019-06-20T16:34:57.993Z,6.30
2019-06-20T16:37:26.625Z,6.17
2019-06-20T16:39:55.172Z,4.83
2019-06-20T16:42:23.777Z,4.33
2019-06-20T16:44:52.614Z,4.13
2019-06-20T16:47:21.498Z,5.47
2019-06-20T16:49:50.333Z,5.50
2019-06-20T16:52:19.164Z,4.23
2019-06-20T16:54:47.750Z,4.20
2019-06-20T16:57:16.663Z,5.17
2019-06-20T16:59:45.327Z,4.73
2019-06-20T17:02:13.843Z,3.50
2019-06-20T17:04:42.359Z,3.93
2019-06-20T17:07:10.919Z,3.93
2019-06-20T17:09:39.451Z,4.17
2019-06-20T17:12:11.054Z,3.13
2019-06-20T17:14:38.281Z,3.17
2019-06-20T17:17:07.169Z,3.10
2019-06-20T17:19:35.790Z,3.00
2019-06-20T17:22:04.320Z,2.80
2019-06-20T17:24:32.955Z,2.87
2019-06-20T17:27:02.038Z,2.90
2019-06-20T17:29:30.606Z,3.00
2019-06-20T17:31:59.161Z,3.30
2019-06-20T17:34:27.678Z,3.20
2019-06-20T17:36:56.651Z,4.20
2019-06-20T17:39:25.228Z,4.53
2019-06-20T17:41:55.439Z,3.80
2019-06-20T17:44:27.367Z,4.03
2019-06-20T17:46:54.536Z,4.10
2019-06-20T17:49:23.144Z,5.00
2019-06-20T17:51:51.717Z,4.10
2019-06-20T17:54:20.336Z,4.13
2019-06-20T17:56:48.812Z,4.80
2019-06-20T17:59:17.316Z,4.80
2019-06-20T18:01:45.855Z,4.40
2019-06-20T18:04:14.460Z,4.83
2019-06-20T18:06:43.232Z,4.50
2019-06-20T18:09:11.831Z,5.03
2019-06-20T18:11:40.398Z,5.43
2019-06-20T18:14:08.941Z,5.27
2019-06-20T18:16:37.809Z,5.30
2019-06-20T18:19:06.330Z,4.77
2019-06-20T18:21:34.971Z,5.80
2019-06-20T18:24:03.563Z,4.90
2019-06-20T18:26:32.394Z,4.83
2019-06-20T18:29:00.942Z,5.33
2019-06-20T18:31:29.504Z,4.43
2019-06-20T18:33:58.052Z,5.23
2019-06-20T18:36:26.569Z,6.10
2019-06-20T18:38:55.484Z,7.87
2019-06-20T18:41:23.996Z,7.73
2019-06-20T18:43:52.585Z,10.00
2019-06-20T18:46:21.479Z,7.73
2019-06-20T18:48:50.376Z,5.93
2019-06-20T18:51:18.975Z,5.60
2019-06-20T18:53:50.575Z,4.93
2019-06-20T18:56:18.042Z,4.77
2019-06-20T18:58:46.626Z,4.23
2019-06-20T19:01:15.205Z,4.77
2019-06-20T19:03:43.820Z,4.07
2019-06-20T19:06:12.349Z,4.00
2019-06-20T19:08:40.900Z,5.40
2019-06-20T19:11:09.567Z,5.53
2019-06-20T19:13:38.160Z,8.90
2019-06-20T19:16:06.746Z,9.23
2019-06-20T19:18:35.276Z,9.70
2019-06-20T19:21:03.936Z,6.60
2019-06-20T19:23:32.900Z,7.30
2019-06-20T19:26:01.763Z,5.90
2019-06-20T19:28:30.266Z,5.87
2019-06-20T19:30:58.899Z,5.70
2019-06-20T19:33:27.435Z,4.27
2019-06-20T19:35:55.928Z,4.97
2019-06-20T19:38:24.426Z,4.13
2019-06-20T19:40:53.043Z,4.80
2019-06-20T19:43:21.594Z,4.37
2019-06-20T19:45:50.199Z,5.23
2019-06-20T19:48:18.738Z,5.77
2019-06-20T19:50:47.662Z,6.63
2019-06-20T19:53:16.382Z,5.53
2019-06-20T19:55:44.918Z,6.97
2019-06-20T19:58:13.451Z,6.67
2019-06-20T20:00:41.935Z,6.97
2019-06-20T20:03:10.478Z,7.67
2019-06-20T20:05:39.317Z,6.83
2019-06-20T20:08:07.909Z,7.47
2019-06-20T20:10:46.449Z,8.00
2019-06-20T20:13:15.528Z,9.97
2019-06-20T20:15:44.429Z,8.20
2019-06-20T20:18:13.321Z,8.00
2019-06-20T20:20:41.879Z,10.63
2019-06-20T20:23:10.896Z,8.27
2019-06-20T20:25:39.452Z,9.17
2019-06-20T20:28:08.009Z,8.77
2019-06-20T20:30:36.663Z,9.13
2019-06-20T20:33:05.271Z,8.13
2019-06-20T20:35:35.808Z,7.97
2019-06-20T20:38:04.105Z,9.00
2019-06-20T20:40:32.621Z,10.13
2019-06-20T20:43:01.213Z,11.30
2019-06-20T20:45:29.723Z,11.90
2019-06-20T20:47:58.312Z,12.50
2019-06-20T20:50:26.850Z,10.17
2019-06-20T20:52:55.342Z,10.83
2019-06-20T20:55:24.046Z,10.53
2019-06-20T20:57:52.599Z,10.67
2019-06-20T21:00:25.765Z,10.00
2019-06-20T21:02:54.360Z,10.60
2019-06-20T21:05:22.883Z,10.60
2019-06-20T21:07:51.451Z,9.80
2019-06-20T21:10:20.108Z,10.07
2019-06-20T21:12:48.566Z,10.60
2019-06-20T21:15:17.090Z,8.33
2019-06-20T21:17:45.570Z,9.63
2019-06-20T21:20:14.488Z,8.50
2019-06-20T21:22:43.036Z,8.47
2019-06-20T21:25:12.066Z,10.13
2019-06-20T21:27:40.660Z,7.97
2019-06-20T21:30:09.347Z,9.60
2019-06-20T21:32:38.171Z,9.37
2019-06-20T21:35:06.726Z,8.03
2019-06-20T21:37:35.245Z,8.40
2019-06-20T21:40:04.018Z,8.10
2019-06-20T21:42:32.809Z,9.13
2019-06-20T21:45:01.563Z,8.20
2019-06-20T21:47:30.010Z,8.40
2019-06-20T21:49:58.575Z,11.17
2019-06-20T21:52:27.113Z,9.27
2019-06-20T21:54:55.794Z,10.53
2019-06-20T21:57:24.351Z,8.83
2019-06-20T21:59:52.854Z,8.97
2019-06-20T22:02:21.378Z,8.63
2019-06-20T22:04:54.460Z,9.73
2019-06-20T22:07:20.198Z,8.33
2019-06-20T22:09:49.005Z,8.93
2019-06-20T22:12:17.598Z,10.23
2019-06-20T22:14:46.161Z,7.93
2019-06-20T22:17:14.677Z,7.67
2019-06-20T22:19:43.199Z,8.40
2019-06-20T22:22:11.780Z,8.37
2019-06-20T22:24:40.343Z,7.60
2019-06-20T22:27:09.043Z,8.70
2019-06-20T22:29:37.551Z,7.00
2019-06-20T22:32:06.330Z,8.30
2019-06-20T22:34:34.892Z,8.33
2019-06-20T22:37:03.448Z,7.20
2019-06-20T22:39:31.983Z,7.70
2019-06-20T22:42:00.494Z,7.13
2019-06-20T22:44:29.082Z,7.27
2019-06-20T22:46:57.600Z,8.30
2019-06-20T22:49:26.127Z,7.83
2019-06-20T22:51:54.764Z,7.87
2019-06-20T22:54:23.295Z,7.87
2019-06-20T22:56:51.925Z,7.63
2019-06-20T22:59:20.362Z,7.90
2019-06-20T23:01:48.978Z,6.00
2019-06-20T23:04:17.456Z,7.10
2019-06-20T23:06:55.823Z,5.90
2019-06-20T23:09:16.698Z,8.00
2019-06-20T23:11:45.459Z,7.27
2019-06-20T23:14:14.080Z,6.27
2019-06-20T23:16:42.558Z,5.87
2019-06-20T23:19:11.083Z,6.17
2019-06-20T23:21:39.675Z,5.87
2019-06-20T23:24:08.218Z,5.30
2019-06-20T23:26:36.706Z,4.97
2019-06-20T23:29:23.497Z,5.43
2019-06-20T23:31:52.812Z,4.97
2019-06-20T23:34:21.323Z,4.37
2019-06-20T23:36:49.865Z,4.80
2019-06-20T23:39:18.389Z,5.00
2019-06-20T23:41:46.931Z,4.40
2019-06-20T23:44:15.471Z,5.27
2019-06-20T23:46:44.490Z,4.70
2019-06-20T23:49:13.413Z,5.10
2019-06-20T23:51:56.432Z,5.07
2019-06-20T23:54:25.138Z,4.87
2019-06-20T23:56:53.696Z,5.27
2019-06-20T23:59:22.267Z,5.17
